createdAt,value
2018-07-27T00:02:23.192Z,76.16
2018-07-27T00:04:55.158Z,76.46
2018-07-27T00:07:26.944Z,76.07
2018-07-27T00:09:58.864Z,76.11
2018-07-27T00:12:30.718Z,76.16
2018-07-27T00:15:02.559Z,75.43
2018-07-27T00:17:34.025Z,75.97
2018-07-27T00:20:06.038Z,75.43
2018-07-27T00:22:39.923Z,76.37
2018-07-27T00:25:11.529Z,76.41
2018-07-27T00:27:43.356Z,76.08
2018-07-27T00:30:15.213Z,76.29
2018-07-27T00:32:47.081Z,76.23
2018-07-27T00:35:18.933Z,76.42
2018-07-27T00:37:50.640Z,76.29
2018-07-27T00:40:22.765Z,76.33
2018-07-27T00:42:54.713Z,76.11
2018-07-27T00:45:26.323Z,75.20
2018-07-27T00:47:58.302Z,75.74
2018-07-27T00:50:30.073Z,75.12
2018-07-27T00:53:02.881Z,75.94
2018-07-27T00:55:34.577Z,75.99
2018-07-27T00:58:06.561Z,75.86
2018-07-27T01:00:38.098Z,75.95
2018-07-27T01:03:10.229Z,76.21
2018-07-27T01:05:41.962Z,75.70
2018-07-27T01:08:13.680Z,75.24
2018-07-27T01:10:46.083Z,75.10
2018-07-27T01:13:18.003Z,74.82
2018-07-27T01:15:49.727Z,75.03
2018-07-27T01:18:21.422Z,74.40
2018-07-27T01:20:53.939Z,74.77
2018-07-27T01:23:25.900Z,74.86
2018-07-27T01:25:57.709Z,75.81
2018-07-27T01:28:29.307Z,75.66
2018-07-27T01:31:01.019Z,75.33
2018-07-27T01:33:32.827Z,75.11
2018-07-27T01:36:04.613Z,74.18
2018-07-27T01:38:36.078Z,72.30
2018-07-27T01:41:07.690Z,74.25
2018-07-27T01:43:39.512Z,75.10
2018-07-27T01:46:11.202Z,75.95
2018-07-27T01:48:42.873Z,75.84
2018-07-27T01:51:14.811Z,76.80
2018-07-27T01:53:46.624Z,76.21
2018-07-27T01:56:18.144Z,77.16
2018-07-27T01:58:50.782Z,77.08
2018-07-27T02:01:22.573Z,77.36
2018-07-27T02:03:54.348Z,77.97
2018-07-27T02:06:26.082Z,78.34
2018-07-27T02:08:57.873Z,77.50
2018-07-27T02:11:29.620Z,78.12
2018-07-27T02:14:01.316Z,78.13
2018-07-27T02:16:33.140Z,78.65
2018-07-27T02:19:04.903Z,79.50
2018-07-27T02:21:36.686Z,78.87
2018-07-27T02:24:08.491Z,79.87
2018-07-27T02:26:40.375Z,80.06
2018-07-27T02:29:12.118Z,79.74
2018-07-27T02:31:44.117Z,80.23
2018-07-27T02:34:15.819Z,80.28
2018-07-27T02:36:47.633Z,79.48
2018-07-27T02:39:19.256Z,80.33
2018-07-27T02:41:51.203Z,79.63
2018-07-27T02:44:23.006Z,80.77
2018-07-27T02:46:54.790Z,80.43
2018-07-27T02:49:26.654Z,80.45
2018-07-27T02:51:58.563Z,80.62
2018-07-27T02:54:30.293Z,81.91
2018-07-27T02:57:01.972Z,80.38
2018-07-27T02:59:33.763Z,81.53
2018-07-27T03:02:05.574Z,81.93
2018-07-27T03:04:37.299Z,81.15
2018-07-27T03:07:09.191Z,81.56
2018-07-27T03:09:41.070Z,80.78
2018-07-27T03:12:12.921Z,81.08
2018-07-27T03:14:44.449Z,81.22
2018-07-27T03:17:16.292Z,81.37
2018-07-27T03:19:48.117Z,81.96
2018-07-27T03:22:19.837Z,81.30
2018-07-27T03:24:52.583Z,82.56
2018-07-27T03:27:36.149Z,82.60
2018-07-27T03:30:08.438Z,81.89
2018-07-27T03:32:40.373Z,82.47
2018-07-27T03:35:12.256Z,83.28
2018-07-27T03:37:44.109Z,82.83
2018-07-27T03:40:15.964Z,83.54
2018-07-27T03:42:47.822Z,82.82
2018-07-27T03:45:19.718Z,81.67
2018-07-27T03:47:51.567Z,82.02
2018-07-27T03:50:23.457Z,82.17
2018-07-27T03:52:55.255Z,80.57
2018-07-27T03:55:26.877Z,81.78
2018-07-27T03:57:58.816Z,81.47
2018-07-27T04:00:30.686Z,81.68
2018-07-27T04:03:02.534Z,82.19
2018-07-27T04:05:34.347Z,82.99
2018-07-27T04:08:06.231Z,82.66
2018-07-27T04:10:38.129Z,82.19
2018-07-27T04:13:10.164Z,82.32
2018-07-27T04:15:42.208Z,83.25
2018-07-27T04:18:13.771Z,82.54
2018-07-27T04:20:45.520Z,83.57
2018-07-27T04:23:17.176Z,83.11
2018-07-27T04:25:50.248Z,83.23
2018-07-27T04:28:22.059Z,82.88
2018-07-27T04:30:53.790Z,81.91
2018-07-27T04:33:25.618Z,82.92
2018-07-27T04:35:57.606Z,83.07
2018-07-27T04:38:28.964Z,82.48
2018-07-27T04:41:00.834Z,83.30
2018-07-27T04:43:32.579Z,83.70
2018-07-27T04:46:04.692Z,83.07
2018-07-27T04:48:36.464Z,83.21
2018-07-27T04:51:08.528Z,84.02
2018-07-27T04:53:40.477Z,83.20
2018-07-27T04:56:12.308Z,83.47
2018-07-27T04:58:43.885Z,84.03
2018-07-27T05:01:16.277Z,84.14
2018-07-27T05:03:48.033Z,83.38
2018-07-27T05:06:19.927Z,84.01
2018-07-27T05:08:56.370Z,83.39
2018-07-27T05:11:28.350Z,83.08
2018-07-27T05:14:00.211Z,84.18
2018-07-27T05:16:32.054Z,83.48
2018-07-27T05:19:03.943Z,83.31
2018-07-27T05:21:35.739Z,84.18
2018-07-27T05:24:07.689Z,84.66
2018-07-27T05:26:41.421Z,84.10
2018-07-27T05:29:13.345Z,83.99
2018-07-27T05:31:45.305Z,83.47
2018-07-27T05:34:17.420Z,83.33
2018-07-27T05:36:49.354Z,83.55
2018-07-27T05:39:21.239Z,83.51
2018-07-27T05:41:53.077Z,83.72
2018-07-27T05:44:24.966Z,83.67
2018-07-27T05:46:57.013Z,83.80
2018-07-27T05:49:28.857Z,83.70
2018-07-27T05:52:00.714Z,83.95
2018-07-27T05:54:32.758Z,84.79
2018-07-27T05:57:04.846Z,84.79
2018-07-27T05:59:36.471Z,84.16
2018-07-27T06:02:10.436Z,84.40
2018-07-27T06:04:40.881Z,84.66
2018-07-27T06:07:12.943Z,84.83
2018-07-27T06:09:44.982Z,84.40
2018-07-27T06:12:16.939Z,85.23
2018-07-27T06:14:48.762Z,84.61
2018-07-27T06:17:20.871Z,85.24
2018-07-27T06:19:52.720Z,84.73
2018-07-27T06:22:24.553Z,85.35
2018-07-27T06:24:56.914Z,84.59
2018-07-27T06:27:31.772Z,84.63
2018-07-27T06:30:04.453Z,84.45
2018-07-27T06:32:36.579Z,84.42
2018-07-27T06:35:08.444Z,85.11
2018-07-27T06:37:40.407Z,85.18
2018-07-27T06:40:13.022Z,85.28
2018-07-27T06:42:45.510Z,84.22
2018-07-27T06:45:17.624Z,85.21
2018-07-27T06:47:50.075Z,84.62
2018-07-27T06:50:22.069Z,84.61
2018-07-27T06:52:54.203Z,81.75
2018-07-27T06:55:26.402Z,80.22
2018-07-27T06:57:58.472Z,82.21
2018-07-27T07:00:30.566Z,82.51
2018-07-27T07:03:02.643Z,83.25
2018-07-27T07:05:34.790Z,84.22
2018-07-27T07:08:07.165Z,83.89
2018-07-27T07:10:39.810Z,84.89
2018-07-27T07:13:12.109Z,85.10
2018-07-27T07:15:43.907Z,85.24
2018-07-27T07:18:16.020Z,85.46
2018-07-27T07:20:48.375Z,85.10
2018-07-27T07:23:20.685Z,85.09
2018-07-27T07:25:54.746Z,84.74
2018-07-27T07:28:27.655Z,84.58
2018-07-27T07:30:59.837Z,85.08
2018-07-27T07:33:33.018Z,85.60
2018-07-27T07:36:05.170Z,84.97
2018-07-27T07:38:37.203Z,85.20
2018-07-27T07:41:09.283Z,82.96
2018-07-27T07:43:41.935Z,84.63
2018-07-27T07:46:14.618Z,85.01
2018-07-27T07:48:46.917Z,85.62
2018-07-27T07:51:19.453Z,85.42
2018-07-27T07:53:52.463Z,84.92
2018-07-27T07:56:24.843Z,85.71
2018-07-27T07:58:58.126Z,84.85
2018-07-27T08:01:30.396Z,85.65
2018-07-27T08:04:02.643Z,84.34
2018-07-27T08:06:34.904Z,84.90
2018-07-27T08:09:10.457Z,85.34
2018-07-27T08:11:42.909Z,83.41
2018-07-27T08:14:15.149Z,84.77
2018-07-27T08:16:47.340Z,84.45
2018-07-27T08:19:19.628Z,85.66
2018-07-27T08:21:51.667Z,84.91
2018-07-27T08:24:24.545Z,85.28
2018-07-27T08:26:58.337Z,85.81
2018-07-27T08:29:32.069Z,85.78
2018-07-27T08:32:04.987Z,85.15
2018-07-27T08:34:37.293Z,85.84
2018-07-27T08:37:09.880Z,85.92
2018-07-27T08:39:43.971Z,85.06
2018-07-27T08:42:16.407Z,85.07
2018-07-27T08:44:48.724Z,85.51
2018-07-27T08:47:21.309Z,85.03
2018-07-27T08:49:53.607Z,85.63
2018-07-27T08:52:26.987Z,85.81
2018-07-27T08:54:59.744Z,86.00
2018-07-27T08:57:32.047Z,85.98
2018-07-27T09:00:04.991Z,85.98
2018-07-27T09:02:37.367Z,85.64
2018-07-27T09:05:09.409Z,85.97
2018-07-27T09:07:41.598Z,85.91
2018-07-27T09:10:14.276Z,86.02
2018-07-27T09:12:46.287Z,86.10
2018-07-27T09:15:18.713Z,85.69
2018-07-27T09:17:50.865Z,86.38
2018-07-27T09:20:23.917Z,86.49
2018-07-27T09:22:56.698Z,85.72
2018-07-27T09:25:29.719Z,86.26
2018-07-27T09:28:03.294Z,86.51
2018-07-27T09:30:36.252Z,85.79
2018-07-27T09:33:09.066Z,86.50
2018-07-27T09:35:43.494Z,86.44
2018-07-27T09:38:16.756Z,86.55
2018-07-27T09:40:50.266Z,86.20
2018-07-27T09:43:24.024Z,86.30
2018-07-27T09:45:58.076Z,86.31
2018-07-27T09:48:33.326Z,86.45
2018-07-27T09:51:08.189Z,85.80
2018-07-27T09:53:41.914Z,85.93
2018-07-27T09:56:16.548Z,86.30
2018-07-27T09:58:51.267Z,86.28
2018-07-27T10:01:27.602Z,85.78
2018-07-27T10:04:05.220Z,85.82
2018-07-27T10:06:37.442Z,85.89
2018-07-27T10:09:11.658Z,85.88
2018-07-27T10:11:44.564Z,85.33
2018-07-27T10:14:17.191Z,85.78
2018-07-27T10:16:50.448Z,85.83
2018-07-27T10:19:23.147Z,85.80
2018-07-27T10:21:55.528Z,86.43
2018-07-27T10:24:27.769Z,85.35
2018-07-27T10:27:00.667Z,85.58
2018-07-27T10:29:34.458Z,85.20
2018-07-27T10:32:07.235Z,85.82
2018-07-27T10:34:39.830Z,84.85
2018-07-27T10:37:13.472Z,85.57
2018-07-27T10:39:45.881Z,85.08
2018-07-27T10:42:18.470Z,85.15
2018-07-27T10:44:50.849Z,84.83
2018-07-27T10:47:22.916Z,85.71
2018-07-27T10:49:55.250Z,85.08
2018-07-27T10:52:27.737Z,85.63
2018-07-27T10:55:00.888Z,85.66
2018-07-27T10:57:33.808Z,85.09
2018-07-27T11:00:08.253Z,85.73
2018-07-27T11:02:41.122Z,85.57
2018-07-27T11:05:14.861Z,85.19
2018-07-27T11:07:48.683Z,85.68
2018-07-27T11:10:21.044Z,85.23
2018-07-27T11:12:53.430Z,85.16
2018-07-27T11:15:27.787Z,85.03
2018-07-27T11:17:59.969Z,84.96
2018-07-27T11:20:32.108Z,85.00
2018-07-27T11:23:05.295Z,84.15
2018-07-27T11:25:37.352Z,84.42
2018-07-27T11:28:10.072Z,85.08
2018-07-27T11:30:44.039Z,84.13
2018-07-27T11:33:16.633Z,84.07
2018-07-27T11:35:50.158Z,84.15
2018-07-27T11:38:22.344Z,84.10
2018-07-27T11:40:54.840Z,84.50
2018-07-27T11:43:27.056Z,84.61
2018-07-27T11:45:59.662Z,84.50
2018-07-27T11:48:31.857Z,83.07
2018-07-27T11:51:04.518Z,83.30
2018-07-27T11:53:36.721Z,83.87
2018-07-27T11:56:09.305Z,82.97
2018-07-27T11:58:41.628Z,83.78
2018-07-27T12:01:14.043Z,84.34
2018-07-27T12:03:46.383Z,84.96
2018-07-27T12:06:19.643Z,84.46
2018-07-27T12:08:51.807Z,85.19
2018-07-27T12:11:24.109Z,84.31
2018-07-27T12:13:56.580Z,84.78
2018-07-27T12:16:29.780Z,85.29
2018-07-27T12:19:02.148Z,85.27
2018-07-27T12:21:34.478Z,85.38
2018-07-27T12:24:09.232Z,85.36
2018-07-27T12:26:42.131Z,84.87
2018-07-27T12:29:14.281Z,84.87
2018-07-27T12:31:47.112Z,85.40
2018-07-27T12:34:19.328Z,84.72
2018-07-27T12:36:51.769Z,84.71
2018-07-27T12:39:24.218Z,85.53
2018-07-27T12:41:56.829Z,84.62
2018-07-27T12:44:29.522Z,84.91
2018-07-27T12:47:02.162Z,84.78
2018-07-27T12:49:34.208Z,84.63
2018-07-27T12:52:07.536Z,85.14
2018-07-27T12:54:39.540Z,84.71
2018-07-27T12:57:11.602Z,84.65
2018-07-27T12:59:43.498Z,84.78
2018-07-27T13:02:15.825Z,84.87
2018-07-27T13:04:49.067Z,84.79
2018-07-27T13:07:21.392Z,84.98
2018-07-27T13:09:58.138Z,85.40
2018-07-27T13:12:30.753Z,84.93
2018-07-27T13:15:03.118Z,84.60
2018-07-27T13:17:35.661Z,84.54
2018-07-27T13:20:08.533Z,84.71
2018-07-27T13:22:40.779Z,85.28
2018-07-27T13:25:13.486Z,85.26
2018-07-27T13:27:46.886Z,84.38
2018-07-27T13:30:20.799Z,84.45
2018-07-27T13:32:54.510Z,84.53
2018-07-27T13:35:27.066Z,84.53
2018-07-27T13:38:00.715Z,84.40
2018-07-27T13:40:33.142Z,84.60
2018-07-27T13:43:05.925Z,84.57
2018-07-27T13:45:38.551Z,84.43
2018-07-27T13:48:10.699Z,85.10
2018-07-27T13:50:43.096Z,84.51
2018-07-27T13:53:15.154Z,82.41
2018-07-27T13:55:47.590Z,79.49
2018-07-27T13:58:20.762Z,79.94
2018-07-27T14:00:54.415Z,81.06
2018-07-27T14:03:26.353Z,80.87
2018-07-27T14:05:58.934Z,81.60
2018-07-27T14:08:31.743Z,82.64
2018-07-27T14:11:03.858Z,81.71
2018-07-27T14:13:36.126Z,82.22
2018-07-27T14:16:08.667Z,82.89
2018-07-27T14:18:42.033Z,83.00
2018-07-27T14:21:14.402Z,82.73
2018-07-27T14:23:46.428Z,83.84
2018-07-27T14:26:18.680Z,83.14
2018-07-27T14:28:50.502Z,83.15
2018-07-27T14:31:22.669Z,83.30
2018-07-27T14:33:55.927Z,82.63
2018-07-27T14:36:27.857Z,82.63
2018-07-27T14:39:00.805Z,82.55
2018-07-27T14:41:33.477Z,82.62
2018-07-27T14:44:06.603Z,82.50
2018-07-27T14:46:39.247Z,82.84
2018-07-27T14:49:13.937Z,82.67
2018-07-27T14:51:46.271Z,82.82
2018-07-27T14:54:18.830Z,83.61
2018-07-27T14:56:51.202Z,83.19
2018-07-27T14:59:23.318Z,83.28
2018-07-27T15:01:55.998Z,82.82
2018-07-27T15:04:28.224Z,82.70
2018-07-27T15:07:00.670Z,83.51
2018-07-27T15:09:33.019Z,83.61
2018-07-27T15:12:05.731Z,83.48
2018-07-27T15:14:37.771Z,82.62
2018-07-27T15:17:10.681Z,82.70
2018-07-27T15:19:42.741Z,82.87
2018-07-27T15:22:15.304Z,82.05
2018-07-27T15:24:47.670Z,82.16
2018-07-27T15:27:19.943Z,82.95
2018-07-27T15:29:53.040Z,82.56
2018-07-27T15:32:25.480Z,82.47
2018-07-27T15:34:58.935Z,83.41
2018-07-27T15:37:31.252Z,83.36
2018-07-27T15:40:03.622Z,82.77
2018-07-27T15:42:36.136Z,83.26
2018-07-27T15:45:09.663Z,83.29
2018-07-27T15:47:42.954Z,82.52
2018-07-27T15:50:15.905Z,82.56
2018-07-27T15:52:48.984Z,82.48
2018-07-27T15:55:21.626Z,82.24
2018-07-27T15:57:55.548Z,82.51
2018-07-27T16:00:29.144Z,82.83
2018-07-27T16:03:02.384Z,83.21
2018-07-27T16:05:35.097Z,83.16
2018-07-27T16:08:08.408Z,82.03
2018-07-27T16:10:40.657Z,83.14
2018-07-27T16:13:15.009Z,82.17
2018-07-27T16:15:47.804Z,82.11
2018-07-27T16:18:20.126Z,82.00
2018-07-27T16:20:54.076Z,81.92
2018-07-27T16:23:26.338Z,81.86
2018-07-27T16:26:00.155Z,81.84
2018-07-27T16:28:32.296Z,82.42
2018-07-27T16:31:05.350Z,81.83
2018-07-27T16:33:37.882Z,81.89
2018-07-27T16:36:11.132Z,81.79
2018-07-27T16:38:43.366Z,82.56
2018-07-27T16:41:15.604Z,81.85
2018-07-27T16:43:47.847Z,82.65
2018-07-27T16:46:20.651Z,82.04
2018-07-27T16:48:53.545Z,82.25
2018-07-27T16:51:26.684Z,82.10
2018-07-27T16:53:59.002Z,81.86
2018-07-27T16:56:31.342Z,81.75
2018-07-27T16:59:05.008Z,81.75
2018-07-27T17:01:38.545Z,81.62
2018-07-27T17:04:11.046Z,82.14
2018-07-27T17:06:44.885Z,81.82
2018-07-27T17:09:17.207Z,82.49
2018-07-27T17:11:49.315Z,82.35
2018-07-27T17:14:22.166Z,81.42
2018-07-27T17:16:54.486Z,81.93
2018-07-27T17:19:26.952Z,81.56
2018-07-27T17:21:59.042Z,82.30
2018-07-27T17:24:32.353Z,81.63
2018-07-27T17:27:07.168Z,81.24
2018-07-27T17:29:39.682Z,81.40
2018-07-27T17:32:11.997Z,82.24
2018-07-27T17:34:44.885Z,82.26
2018-07-27T17:37:17.807Z,81.66
2018-07-27T17:39:50.467Z,81.80
2018-07-27T17:42:23.790Z,81.64
2018-07-27T17:44:57.266Z,82.08
2018-07-27T17:47:31.193Z,81.35
2018-07-27T17:50:03.413Z,82.19
2018-07-27T17:52:36.218Z,81.53
2018-07-27T17:55:08.617Z,81.51
2018-07-27T17:57:40.877Z,82.15
2018-07-27T18:00:13.485Z,82.31
2018-07-27T18:02:45.682Z,82.17
2018-07-27T18:05:18.158Z,81.34
2018-07-27T18:07:52.339Z,81.18
2018-07-27T18:10:25.394Z,81.57
2018-07-27T18:12:57.591Z,81.11
2018-07-27T18:15:30.070Z,81.16
2018-07-27T18:18:02.630Z,81.14
2018-07-27T18:20:34.809Z,81.02
2018-07-27T18:23:07.610Z,81.22
2018-07-27T18:25:40.154Z,81.71
2018-07-27T18:28:12.603Z,80.90
2018-07-27T18:30:44.891Z,80.90
2018-07-27T18:33:18.188Z,80.85
2018-07-27T18:35:51.452Z,81.22
2018-07-27T18:38:24.268Z,81.85
2018-07-27T18:40:56.584Z,81.23
2018-07-27T18:43:29.037Z,80.89
2018-07-27T18:46:01.719Z,80.68
2018-07-27T18:48:33.820Z,79.67
2018-07-27T18:51:06.463Z,79.17
2018-07-27T18:53:38.756Z,78.91
2018-07-27T18:56:11.563Z,79.29
2018-07-27T18:58:44.590Z,78.71
2018-07-27T19:01:16.938Z,79.81
2018-07-27T19:03:49.202Z,79.91
2018-07-27T19:06:21.402Z,80.27
2018-07-27T19:08:53.914Z,79.30
2018-07-27T19:11:27.393Z,79.61
2018-07-27T19:13:59.695Z,78.84
2018-07-27T19:16:32.355Z,78.93
2018-07-27T19:19:04.612Z,79.01
2018-07-27T19:21:37.315Z,79.44
2018-07-27T19:24:10.630Z,78.68
2018-07-27T19:26:43.054Z,79.77
2018-07-27T19:29:15.477Z,78.17
2018-07-27T19:31:47.839Z,78.06
2018-07-27T19:34:20.019Z,78.13
2018-07-27T19:36:52.670Z,78.10
2018-07-27T19:39:24.847Z,78.69
2018-07-27T19:41:57.226Z,78.62
2018-07-27T19:44:29.487Z,78.40
2018-07-27T19:47:01.765Z,77.51
2018-07-27T19:49:34.052Z,77.91
2018-07-27T19:52:07.647Z,77.38
2018-07-27T19:54:40.457Z,77.67
2018-07-27T19:57:12.999Z,78.01
2018-07-27T19:59:45.946Z,77.31
2018-07-27T20:02:19.868Z,78.49
2018-07-27T20:04:53.726Z,78.27
2018-07-27T20:07:26.930Z,78.00
2018-07-27T20:09:59.915Z,78.34
2018-07-27T20:12:31.794Z,77.27
2018-07-27T20:15:03.659Z,78.09
2018-07-27T20:17:36.138Z,77.36
2018-07-27T20:20:09.644Z,77.19
2018-07-27T20:22:41.732Z,77.59
2018-07-27T20:25:13.709Z,77.10
2018-07-27T20:27:45.832Z,77.06
2018-07-27T20:30:18.389Z,77.55
2018-07-27T20:32:50.309Z,76.90
2018-07-27T20:35:23.417Z,76.21
2018-07-27T20:37:56.338Z,77.43
2018-07-27T20:40:28.623Z,76.84
2018-07-27T20:43:00.780Z,77.26
2018-07-27T20:45:33.171Z,77.23
2018-07-27T20:48:05.312Z,77.71
2018-07-27T20:50:37.524Z,77.22
2018-07-27T20:53:09.617Z,77.94
2018-07-27T20:55:41.296Z,77.45
2018-07-27T20:58:14.013Z,76.63
2018-07-27T21:00:45.806Z,77.11
2018-07-27T21:03:17.590Z,76.47
2018-07-27T21:05:49.634Z,76.68
2018-07-27T21:08:21.512Z,76.12
2018-07-27T21:10:53.673Z,76.59
2018-07-27T21:13:25.621Z,76.73
2018-07-27T21:15:57.576Z,76.58
2018-07-27T21:18:29.543Z,76.49
2018-07-27T21:21:01.220Z,76.63
2018-07-27T21:23:32.791Z,76.33
2018-07-27T21:26:05.072Z,77.32
2018-07-27T21:28:36.684Z,77.00
2018-07-27T21:31:08.693Z,77.15
2018-07-27T21:33:40.600Z,77.47
2018-07-27T21:36:13.106Z,76.37
2018-07-27T21:38:44.953Z,76.72
2018-07-27T21:41:16.740Z,76.57
2018-07-27T21:43:48.638Z,77.20
2018-07-27T21:46:20.287Z,77.69
2018-07-27T21:48:52.242Z,76.33
2018-07-27T21:51:24.262Z,77.00
2018-07-27T21:53:55.957Z,77.29
2018-07-27T21:56:27.973Z,77.10
2018-07-27T21:58:59.778Z,76.31
2018-07-27T22:01:31.897Z,76.16
2018-07-27T22:04:03.507Z,77.11
2018-07-27T22:06:35.358Z,76.51
2018-07-27T22:09:09.269Z,76.38
2018-07-27T22:11:41.133Z,76.02
2018-07-27T22:14:13.049Z,76.69
2018-07-27T22:16:44.708Z,77.18
2018-07-27T22:19:16.508Z,77.29
2018-07-27T22:21:48.517Z,76.28
2018-07-27T22:24:20.245Z,76.36
2018-07-27T22:26:51.989Z,75.80
2018-07-27T22:29:23.732Z,75.78
2018-07-27T22:31:55.654Z,76.88
2018-07-27T22:34:27.531Z,76.27
2018-07-27T22:37:00.209Z,77.10
2018-07-27T22:39:31.921Z,75.99
2018-07-27T22:42:04.060Z,76.19
2018-07-27T22:44:36.076Z,76.29
2018-07-27T22:47:07.883Z,76.26
2018-07-27T22:49:40.036Z,75.63
2018-07-27T22:52:11.811Z,76.22
2018-07-27T22:54:43.698Z,75.28
2018-07-27T22:57:15.243Z,75.52
2018-07-27T22:59:47.182Z,75.98
2018-07-27T23:02:19.062Z,75.92
2018-07-27T23:04:50.749Z,76.82
2018-07-27T23:07:22.504Z,75.87
2018-07-27T23:09:54.347Z,76.54
2018-07-27T23:12:26.822Z,76.23
2018-07-27T23:14:59.164Z,76.93
2018-07-27T23:17:31.138Z,77.32
2018-07-27T23:20:02.964Z,77.10
2018-07-27T23:22:34.773Z,76.21
2018-07-27T23:25:07.745Z,76.79
2018-07-27T23:27:39.599Z,76.72
2018-07-27T23:30:14.183Z,75.88
2018-07-27T23:32:45.684Z,76.34
2018-07-27T23:35:17.541Z,76.69
2018-07-27T23:37:50.438Z,77.09
2018-07-27T23:40:22.348Z,76.96
2018-07-27T23:45:19.784Z,76.19
2018-07-27T23:47:51.371Z,76.35
2018-07-27T23:50:23.407Z,76.25
2018-07-27T23:52:56.560Z,76.48
2018-07-27T23:55:28.409Z,76.91
2018-07-27T23:58:00.165Z,76.21
